Time;durP1;ratioP1;P1;durP2;ratioP2;P2;SDS_P1;SDS_P2;PMS_P1;PMS_P2;Temp;Humidity;BMP_temperature;BMP_pressure;BME280_temperature;BME280_humidity;BME280_pressure;Samples;Min_cycle;Max_cycle;Signal;HPM_P1;HPM_P2
2022/09/22 00:00:16;;;;;;;;;;;;;;;9.23;57.01855;102634.8;;;;-75
2022/09/22 00:05:15;;;;;;;;;;;;;;;9.22;57.03906;102626.7;;;;-74
2022/09/22 00:10:20;;;;;;;;;;;;;;;9.12;56.98145;102624.8;;;;-75
2022/09/22 00:13:03;;;;;;;6.1;2.7;;;;;;;;;;;;;-75
2022/09/22 00:15:16;;;;;;;;;;;;;;;9.08;56.87793;102622.9;;;;-74
2022/09/22 00:20:16;;;;;;;;;;;;;;;9.01;57.0332;102616.2;;;;-76
2022/09/22 00:25:20;;;;;;;;;;;;;;;9.01;57.00195;102617.8;;;;-75
2022/09/22 00:30:17;;;;;;;;;;;;;;;8.95;57.21484;102611.9;;;;-75
2022/09/22 00:35:16;;;;;;;;;;;;;;;8.96;57.07227;102608.4;;;;-75
2022/09/22 00:40:16;;;;;;;;;;;;;;;8.88;56.97266;102604.8;;;;-75
2022/09/22 00:43:11;;;;;;;6.1;2.5;;;;;;;;;;;;;-75
2022/09/22 00:45:16;;;;;;;;;;;;;;;8.86;57.13672;102604.4;;;;-75
2022/09/22 00:50:19;;;;;;;;;;;;;;;8.87;56.95996;102597.1;;;;-76
2022/09/22 00:55:19;;;;;;;;;;;;;;;8.86;56.95898;102593.5;;;;-74
2022/09/22 01:00:16;;;;;;;;;;;;;;;8.88;56.85059;102592.4;;;;-75
2022/09/22 01:05:16;;;;;;;;;;;;;;;8.89;56.70703;102587.9;;;;-75
2022/09/22 01:10:16;;;;;;;;;;;;;;;8.87;56.72754;102584.3;;;;-76
2022/09/22 01:13:07;;;;;;;5;2.1;;;;;;;;;;;;;-73
2022/09/22 01:15:22;;;;;;;;;;;;;;;8.86;56.78125;102587.4;;;;-75
2022/09/22 01:20:29;;;;;;;;;;;;;;;8.85;56.64844;102582;;;;-75
2022/09/22 01:25:27;;;;;;;;;;;;;;;8.78;56.83887;102575;;;;-75
2022/09/22 01:30:19;;;;;;;;;;;;;;;8.72;56.91895;102567.3;;;;-74
2022/09/22 01:35:19;;;;;;;;;;;;;;;8.72;56.76367;102557.5;;;;-76
2022/09/22 01:40:19;;;;;;;;;;;;;;;8.66;57.09961;102564.8;;;;-75
2022/09/22 01:43:05;;;;;;;5.4;2.5;;;;;;;;;;;;;-75
2022/09/22 01:45:18;;;;;;;;;;;;;;;8.63;57.02734;102555.1;;;;-75
2022/09/22 01:50:18;;;;;;;;;;;;;;;8.62;57.02734;102554;;;;-74
2022/09/22 01:55:19;;;;;;;;;;;;;;;8.57;56.97656;102551.6;;;;-75
2022/09/22 02:00:16;;;;;;;;;;;;;;;8.51;57.11328;102544.7;;;;-75
2022/09/22 02:05:17;;;;;;;;;;;;;;;8.48;56.83203;102537.6;;;;-75
2022/09/22 02:10:17;;;;;;;;;;;;;;;8.38;57.09668;102531.6;;;;-76
2022/09/22 02:13:02;;;;;;;5.6;2.1;;;;;;;;;;;;;-75
2022/09/22 02:20:15;;;;;;;;;;;;;;;8.39;56.98535;102526.2;;;;-74
2022/09/22 02:25:16;;;;;;;;;;;;;;;8.3;57.22949;102519.1;;;;-74
2022/09/22 02:30:16;;;;;;;;;;;;;;;8.32;57.16602;102516.4;;;;-74
2022/09/22 02:35:16;;;;;;;;;;;;;;;8.31;57.03125;102514.6;;;;-77
2022/09/22 02:40:19;;;;;;;;;;;;;;;8.29;56.99512;102514.5;;;;-75
2022/09/22 02:43:04;;;;;;;4.2;2.1;;;;;;;;;;;;;-77
2022/09/22 02:45:21;;;;;;;;;;;;;;;8.26;57.00195;102513.3;;;;-75
2022/09/22 02:50:23;;;;;;;;;;;;;;;8.21;57.12891;102508.5;;;;-76
2022/09/22 02:55:16;;;;;;;;;;;;;;;8.25;57.01172;102504.8;;;;-74
2022/09/22 03:00:16;;;;;;;;;;;;;;;8.29;56.9502;102503.3;;;;-77
2022/09/22 03:05:15;;;;;;;;;;;;;;;8.3;56.89746;102499;;;;-75
2022/09/22 03:10:16;;;;;;;;;;;;;;;8.29;56.86133;102502.7;;;;-76
2022/09/22 03:13:03;;;;;;;3.4;1.8;;;;;;;;;;;;;-75
2022/09/22 03:15:17;;;;;;;;;;;;;;;8.29;56.88379;102501.5;;;;-75
2022/09/22 03:20:18;;;;;;;;;;;;;;;8.32;56.66602;102490.9;;;;-76
2022/09/22 03:25:15;;;;;;;;;;;;;;;8.36;56.57227;102495.2;;;;-74
2022/09/22 03:30:16;;;;;;;;;;;;;;;8.3;56.88672;102491.3;;;;-78
2022/09/22 03:35:15;;;;;;;;;;;;;;;8.26;57.25781;102488.5;;;;-76
2022/09/22 03:40:16;;;;;;;;;;;;;;;8.33;56.83398;102481.9;;;;-76
2022/09/22 03:43:03;;;;;;;3.3;1.7;;;;;;;;;;;;;-77
2022/09/22 03:45:16;;;;;;;;;;;;;;;8.3;57.2627;102479.4;;;;-75
2022/09/22 03:50:16;;;;;;;;;;;;;;;8.3;56.61914;102481.3;;;;-74
2022/09/22 03:55:16;;;;;;;;;;;;;;;8.32;56.36621;102482.3;;;;-77
2022/09/22 04:00:16;;;;;;;;;;;;;;;8.23;56.73242;102480.9;;;;-74
2022/09/22 04:05:16;;;;;;;;;;;;;;;8.26;56.95898;102479.5;;;;-75
2022/09/22 04:10:15;;;;;;;;;;;;;;;8.29;57.45996;102474.7;;;;-75
2022/09/22 04:13:03;;;;;;;3.3;1.7;;;;;;;;;;;;;-76
2022/09/22 04:15:16;;;;;;;;;;;;;;;8.29;57.19434;102477.2;;;;-74
2022/09/22 04:20:16;;;;;;;;;;;;;;;8.28;57.09473;102473.5;;;;-76
2022/09/22 04:25:19;;;;;;;;;;;;;;;8.3;57.46289;102472.3;;;;-77
2022/09/22 04:30:16;;;;;;;;;;;;;;;8.32;57.24316;102469.2;;;;-74
2022/09/22 04:35:16;;;;;;;;;;;;;;;8.33;57.06738;102468.5;;;;-77
2022/09/22 04:40:17;;;;;;;;;;;;;;;8.32;57.48633;102468.1;;;;-74
2022/09/22 04:43:04;;;;;;;4.1;2;;;;;;;;;;;;;-74
2022/09/22 04:45:16;;;;;;;;;;;;;;;8.31;57.59668;102462.9;;;;-75
2022/09/22 04:50:15;;;;;;;;;;;;;;;8.37;57.42676;102465.3;;;;-76
2022/09/22 04:55:16;;;;;;;;;;;;;;;8.31;57.48633;102459.9;;;;-77
2022/09/22 05:00:16;;;;;;;;;;;;;;;8.33;57.18945;102463.7;;;;-75
2022/09/22 05:05:16;;;;;;;;;;;;;;;8.27;57.11426;102464.8;;;;-75
2022/09/22 05:10:16;;;;;;;;;;;;;;;8.25;56.97754;102463.8;;;;-75
2022/09/22 05:13:04;;;;;;;3.5;1.9;;;;;;;;;;;;;-75
2022/09/22 05:15:19;;;;;;;;;;;;;;;8.26;57.09082;102461.6;;;;-74
2022/09/22 05:20:16;;;;;;;;;;;;;;;8.23;56.97656;102462.5;;;;-76
2022/09/22 05:25:17;;;;;;;;;;;;;;;8.24;57.01074;102457.9;;;;-76
2022/09/22 05:30:16;;;;;;;;;;;;;;;8.24;56.91113;102456.9;;;;-78
2022/09/22 05:35:16;;;;;;;;;;;;;;;8.23;56.82227;102458.8;;;;-76
2022/09/22 05:40:18;;;;;;;;;;;;;;;8.21;56.84082;102459.2;;;;-76
2022/09/22 05:43:05;;;;;;;4.3;1.9;;;;;;;;;;;;;-76
2022/09/22 05:45:17;;;;;;;;;;;;;;;8.21;57.19531;102465.3;;;;-76
2022/09/22 05:50:16;;;;;;;;;;;;;;;8.24;56.97754;102461.2;;;;-74
2022/09/22 05:55:16;;;;;;;;;;;;;;;8.25;57.18945;102459.7;;;;-75
2022/09/22 06:00:16;;;;;;;;;;;;;;;8.28;56.9834;102459;;;;-76
2022/09/22 06:05:16;;;;;;;;;;;;;;;8.35;56.79199;102454.4;;;;-75
2022/09/22 06:10:15;;;;;;;;;;;;;;;8.47;56.70703;102457.2;;;;-75
2022/09/22 06:13:06;;;;;;;4.5;1.9;;;;;;;;;;;;;-75
2022/09/22 06:15:15;;;;;;;;;;;;;;;8.61;56.38281;102456.6;;;;-76
2022/09/22 06:20:16;;;;;;;;;;;;;;;8.76;56.40234;102451.4;;;;-75
2022/09/22 06:25:18;;;;;;;;;;;;;;;8.88;56.10742;102454.8;;;;-75
2022/09/22 06:30:17;;;;;;;;;;;;;;;9.02;56.25781;102450.7;;;;-75
2022/09/22 06:35:15;;;;;;;;;;;;;;;9.15;55.71875;102448.3;;;;-75
2022/09/22 06:40:16;;;;;;;;;;;;;;;9.33;56.30859;102450.3;;;;-75
2022/09/22 06:43:09;;;;;;;5.8;2.8;;;;;;;;;;;;;-75
2022/09/22 06:45:17;;;;;;;;;;;;;;;9.52;56.71289;102447.3;;;;-76
2022/09/22 06:50:16;;;;;;;;;;;;;;;9.7;57.07031;102446.9;;;;-76
2022/09/22 06:55:19;;;;;;;;;;;;;;;9.88;56.01465;102452.1;;;;-75
2022/09/22 07:00:17;;;;;;;;;;;;;;;10.04;56.99219;102453.2;;;;-77
2022/09/22 07:05:19;;;;;;;;;;;;;;;10.27;58.2334;102449.6;;;;-77
2022/09/22 07:10:17;;;;;;;;;;;;;;;10.49;56.9834;102437.1;;;;-76
2022/09/22 07:13:09;;;;;;;5.6;3;;;;;;;;;;;;;-76
2022/09/22 07:15:15;;;;;;;;;;;;;;;10.78;58.61523;102440.5;;;;-75
2022/09/22 07:20:17;;;;;;;;;;;;;;;11.02;56.90723;102441.1;;;;-76
2022/09/22 07:25:15;;;;;;;;;;;;;;;11.28;56.64063;102435.9;;;;-76
2022/09/22 07:30:16;;;;;;;;;;;;;;;11.53;56.4834;102429.3;;;;-75
2022/09/22 07:35:15;;;;;;;;;;;;;;;11.8;55.58984;102436.5;;;;-77
2022/09/22 07:40:16;;;;;;;;;;;;;;;12.17;54.79785;102437.8;;;;-75
2022/09/22 07:43:07;;;;;;;6.3;3.7;;;;;;;;;;;;;-76
2022/09/22 07:45:16;;;;;;;;;;;;;;;12.54;54.9668;102431.7;;;;-75
2022/09/22 07:50:16;;;;;;;;;;;;;;;12.91;55.29395;102427.8;;;;-74
2022/09/22 07:55:15;;;;;;;;;;;;;;;13.29;55.08398;102427.6;;;;-74
2022/09/22 08:00:17;;;;;;;;;;;;;;;13.65;55.4541;102428.9;;;;-75
2022/09/22 08:05:16;;;;;;;;;;;;;;;13.97;55.03418;102424;;;;-76
2022/09/22 08:10:16;;;;;;;;;;;;;;;14.46;54.07227;102421.9;;;;-76
2022/09/22 08:13:10;;;;;;;7.1;4.7;;;;;;;;;;;;;-78
2022/09/22 08:15:17;;;;;;;;;;;;;;;14.86;53.54688;102420;;;;-74
2022/09/22 08:20:15;;;;;;;;;;;;;;;15.32;52.83496;102413.9;;;;-73
2022/09/22 08:25:16;;;;;;;;;;;;;;;15.88;51.51367;102407.3;;;;-75
2022/09/22 08:30:17;;;;;;;;;;;;;;;16.29;50.98535;102410.2;;;;-75
2022/09/22 08:35:16;;;;;;;;;;;;;;;16.61;49.82324;102411.5;;;;-77
2022/09/22 08:40:19;;;;;;;;;;;;;;;17.12;49.36914;102411.7;;;;-74
2022/09/22 08:43:11;;;;;;;9.3;4.5;;;;;;;;;;;;;-75
2022/09/22 08:45:24;;;;;;;;;;;;;;;17.48;48.76367;102405;;;;-74
2022/09/22 08:55:20;;;;;;;;;;;;;;;18.25;47.71191;102399;;;;-77
2022/09/22 09:00:17;;;;;;;;;;;;;;;18.56;47.07324;102403.7;;;;-78
2022/09/22 09:05:27;;;;;;;;;;;;;;;19.03;46.50781;102400.5;;;;-78
2022/09/22 09:10:27;;;;;;;;;;;;;;;19.43;45.85352;102396.7;;;;-77
2022/09/22 09:13:19;;;;;;;8.9;4;;;;;;;;;;;;;-77
2022/09/22 09:15:26;;;;;;;;;;;;;;;19.77;45.36426;102394.4;;;;-78
2022/09/22 09:20:20;;;;;;;;;;;;;;;19.97;45.15527;102398.5;;;;-78
2022/09/22 09:25:21;;;;;;;;;;;;;;;20.14;44.7959;102402.2;;;;-78
2022/09/22 09:30:18;;;;;;;;;;;;;;;20.38;44.38477;102402.4;;;;-78
2022/09/22 09:35:23;;;;;;;;;;;;;;;20.52;44.27344;102398.6;;;;-76
2022/09/22 09:40:20;;;;;;;;;;;;;;;20.83;43.9043;102396.7;;;;-77
2022/09/22 09:43:13;;;;;;;8.8;3.9;;;;;;;;;;;;;-76
2022/09/22 09:45:19;;;;;;;;;;;;;;;21.07;43.49219;102397.4;;;;-77
2022/09/22 09:50:18;;;;;;;;;;;;;;;21.2;43.14941;102393.2;;;;-77
2022/09/22 09:55:24;;;;;;;;;;;;;;;21.31;43.01074;102389;;;;-76
2022/09/22 10:05:25;;;;;;;;;;;;;;;21.67;42.26465;102386;;;;-74
2022/09/22 10:10:39;;;;;;;;;;;;;;;21.83;41.64941;102377.2;;;;-75
2022/09/22 10:13:23;;;;;;;9.7;3.5;;;;;;;;;;;;;-75
2022/09/22 10:15:25;;;;;;;;;;;;;;;22.01;41.36719;102374.9;;;;-73
2022/09/22 10:20:25;;;;;;;;;;;;;;;22.1;41.05371;102373.1;;;;-74
2022/09/22 10:25:22;;;;;;;;;;;;;;;22.37;40.8252;102366.6;;;;-73
2022/09/22 10:30:31;;;;;;;;;;;;;;;22.55;40.64746;102366.1;;;;-74
2022/09/22 10:35:26;;;;;;;;;;;;;;;22.63;41.55078;102358.6;;;;-74
2022/09/22 10:40:18;;;;;;;;;;;;;;;22.67;40.66895;102350.7;;;;-75
2022/09/22 10:43:23;;;;;;;6.9;3.1;;;;;;;;;;;;;-75
2022/09/22 10:45:18;;;;;;;;;;;;;;;22.65;40.08008;102346.8;;;;-73
2022/09/22 10:50:30;;;;;;;;;;;;;;;22.75;41.2168;102350.2;;;;-75
2022/09/22 10:55:24;;;;;;;;;;;;;;;22.82;41.49902;102343.1;;;;-75
2022/09/22 11:00:18;;;;;;;;;;;;;;;22.75;39.93945;102332;;;;-75
2022/09/22 11:12:15;;;;;;;;;;;;;;;22.76;39.88281;102333.4;;;;-76
2022/09/22 11:13:28;;;;;;;7.7;3.1;;;;;;;;;;;;;-74
2022/09/22 11:15:29;;;;;;;;;;;;;;;22.89;41.21777;102327;;;;-75
2022/09/22 11:20:30;;;;;;;;;;;;;;;23.03;41.38086;102325.2;;;;-74
2022/09/22 11:25:26;;;;;;;;;;;;;;;23.16;41.30078;102316.7;;;;-74
2022/09/22 11:30:23;;;;;;;;;;;;;;;23.29;44.66406;102308.5;;;;-75
2022/09/22 11:35:26;;;;;;;;;;;;;;;23.41;41.37012;102303.6;;;;-73
2022/09/22 11:40:36;;;;;;;;;;;;;;;23.35;42.32031;102293.4;;;;-75
2022/09/22 11:43:32;;;;;;;4.8;2.3;;;;;;;;;;;;;-74
2022/09/22 11:45:23;;;;;;;;;;;;;;;23.46;43.61035;102288.1;;;;-74
2022/09/22 11:50:37;;;;;;;;;;;;;;;23.43;45.02441;102278.3;;;;-75
2022/09/22 11:55:28;;;;;;;;;;;;;;;23.53;47.56641;102275.1;;;;-75
2022/09/22 12:00:19;;;;;;;;;;;;;;;23.56;47.04004;102267.8;;;;-75
2022/09/22 12:05:19;;;;;;;;;;;;;;;23.6;46.37598;102260.7;;;;-74
2022/09/22 12:10:21;;;;;;;;;;;;;;;23.69;47.49219;102256.6;;;;-74
2022/09/22 12:13:33;;;;;;;3.7;1.6;;;;;;;;;;;;;-74
2022/09/22 12:15:22;;;;;;;;;;;;;;;23.66;45.03516;102248.6;;;;-74
2022/09/22 12:20:28;;;;;;;;;;;;;;;23.58;46.52441;102247.7;;;;-74
2022/09/22 12:25:30;;;;;;;;;;;;;;;23.71;44.85547;102244.4;;;;-73
2022/09/22 12:30:25;;;;;;;;;;;;;;;23.65;43.51367;102240.5;;;;-76
2022/09/22 12:35:22;;;;;;;;;;;;;;;23.47;46.1084;102224.7;;;;-75
2022/09/22 12:40:30;;;;;;;;;;;;;;;23.6;42.90918;102210.6;;;;-73
2022/09/22 12:43:34;;;;;;;4.2;1.5;;;;;;;;;;;;;-76
2022/09/22 12:45:21;;;;;;;;;;;;;;;23.56;44.3916;102207.7;;;;-75
2022/09/22 12:50:29;;;;;;;;;;;;;;;23.44;46.01465;102203.7;;;;-74
2022/09/22 12:55:37;;;;;;;;;;;;;;;23.53;47.6123;102197.1;;;;-75
2022/09/22 13:00:21;;;;;;;;;;;;;;;23.48;44.50977;102193.2;;;;-74
2022/09/22 13:05:26;;;;;;;;;;;;;;;23.43;44.62109;102198.6;;;;-74
2022/09/22 13:10:27;;;;;;;;;;;;;;;23.26;45.71973;102184.7;;;;-74
2022/09/22 13:13:41;;;;;;;4.5;1.7;;;;;;;;;;;;;-75
2022/09/22 13:15:27;;;;;;;;;;;;;;;23.21;44.62207;102181.1;;;;-74
2022/09/22 13:20:21;;;;;;;;;;;;;;;23.36;45.60352;102168;;;;-74
2022/09/22 13:25:24;;;;;;;;;;;;;;;23.47;43.41504;102163.5;;;;-74
2022/09/22 13:30:18;;;;;;;;;;;;;;;23.4;43.86914;102157.2;;;;-75
2022/09/22 13:35:29;;;;;;;;;;;;;;;23.38;41.18262;102157.2;;;;-74
2022/09/22 13:40:15;;;;;;;;;;;;;;;23.38;43.0498;102153.5;;;;-73
2022/09/22 13:43:41;;;;;;;4.7;1.4;;;;;;;;;;;;;-75
2022/09/22 13:45:20;;;;;;;;;;;;;;;23.31;41.66113;102152.2;;;;-74
2022/09/22 13:50:18;;;;;;;;;;;;;;;23.24;41.61914;102155.3;;;;-74
2022/09/22 13:55:21;;;;;;;;;;;;;;;23.24;43.2207;102152.9;;;;-75
2022/09/22 14:00:25;;;;;;;;;;;;;;;23.14;40.68848;102152.6;;;;-74
2022/09/22 14:05:20;;;;;;;;;;;;;;;23.06;42.8916;102146.5;;;;-74
2022/09/22 14:10:18;;;;;;;;;;;;;;;23.14;43.10742;102135.5;;;;-74
2022/09/22 14:13:56;;;;;;;4.4;1.5;;;;;;;;;;;;;-74
2022/09/22 14:15:26;;;;;;;;;;;;;;;23.07;41.90234;102138.3;;;;-74
2022/09/22 14:20:19;;;;;;;;;;;;;;;22.98;41.76855;102131.2;;;;-75
2022/09/22 14:25:21;;;;;;;;;;;;;;;22.98;42.29785;102126.4;;;;-76
2022/09/22 14:30:21;;;;;;;;;;;;;;;22.93;41.57813;102122;;;;-73
2022/09/22 14:35:21;;;;;;;;;;;;;;;22.98;43.01172;102119.5;;;;-74
2022/09/22 14:40:21;;;;;;;;;;;;;;;22.92;42.42871;102121.5;;;;-74
2022/09/22 14:43:49;;;;;;;4.4;2;;;;;;;;;;;;;-74
2022/09/22 14:45:22;;;;;;;;;;;;;;;22.89;40.30859;102115.8;;;;-73
2022/09/22 14:50:19;;;;;;;;;;;;;;;22.85;40.73145;102104.9;;;;-75
2022/09/22 14:55:18;;;;;;;;;;;;;;;22.73;40.375;102108.4;;;;-75
2022/09/22 15:05:25;;;;;;;;;;;;;;;22.39;41.41406;102097.1;;;;-75
2022/09/22 15:10:25;;;;;;;;;;;;;;;22.33;41.98438;102096;;;;-74
2022/09/22 15:13:51;;;;;;;5.1;2.1;;;;;;;;;;;;;-75
2022/09/22 15:15:23;;;;;;;;;;;;;;;22.29;41.95703;102092.8;;;;-74
2022/09/22 15:20:15;;;;;;;;;;;;;;;22.31;42.07324;102094.2;;;;-74
2022/09/22 15:25:16;;;;;;;;;;;;;;;22.2;40.99316;102090.8;;;;-76
2022/09/22 15:30:19;;;;;;;;;;;;;;;22.11;41.76758;102089.3;;;;-75
2022/09/22 15:35:16;;;;;;;;;;;;;;;22;42.96191;102087;;;;-73
2022/09/22 15:40:25;;;;;;;;;;;;;;;21.81;40.81934;102090.4;;;;-73
2022/09/22 15:43:54;;;;;;;8.9;4;;;;;;;;;;;;;-73
2022/09/22 15:45:20;;;;;;;;;;;;;;;21.61;43.67188;102085.9;;;;-74
2022/09/22 15:50:24;;;;;;;;;;;;;;;21.5;42.91406;102084.1;;;;-75
2022/09/22 15:55:19;;;;;;;;;;;;;;;21.29;43.63965;102079.3;;;;-74
2022/09/22 16:00:23;;;;;;;;;;;;;;;21.19;43.1377;102074.2;;;;-74
2022/09/22 16:05:17;;;;;;;;;;;;;;;21.19;42.4834;102069.8;;;;-75
2022/09/22 16:10:16;;;;;;;;;;;;;;;21.11;42.13281;102067.3;;;;-73
2022/09/22 16:14:02;;;;;;;4.8;2.3;;;;;;;;;;;;;-74
2022/09/22 16:15:18;;;;;;;;;;;;;;;21.01;42.90332;102065.4;;;;-74
2022/09/22 16:20:16;;;;;;;;;;;;;;;20.84;43.06934;102064.5;;;;-74
2022/09/22 16:25:17;;;;;;;;;;;;;;;20.64;43.41602;102060.3;;;;-74
2022/09/22 16:30:15;;;;;;;;;;;;;;;20.46;42.94141;102061.1;;;;-74
2022/09/22 16:35:16;;;;;;;;;;;;;;;20.22;43.95801;102060.2;;;;-75
2022/09/22 16:40:21;;;;;;;;;;;;;;;20.03;43.19727;102051.9;;;;-74
2022/09/22 16:44:01;;;;;;;3.8;1.9;;;;;;;;;;;;;-74
2022/09/22 16:45:15;;;;;;;;;;;;;;;19.82;43.73535;102055.2;;;;-75
2022/09/22 16:50:15;;;;;;;;;;;;;;;19.63;43.75098;102053.5;;;;-76
2022/09/22 16:55:15;;;;;;;;;;;;;;;19.44;43.94922;102051.9;;;;-76
2022/09/22 17:00:18;;;;;;;;;;;;;;;19.24;44.00977;102046.9;;;;-76
2022/09/22 17:05:16;;;;;;;;;;;;;;;19.05;43.92285;102047.9;;;;-75
2022/09/22 17:10:15;;;;;;;;;;;;;;;18.87;44.08691;102044.5;;;;-75
2022/09/22 17:14:04;;;;;;;3.1;1.4;;;;;;;;;;;;;-75
2022/09/22 17:15:16;;;;;;;;;;;;;;;18.67;44.40918;102047.5;;;;-75
2022/09/22 17:20:15;;;;;;;;;;;;;;;18.44;44.60156;102044.1;;;;-74
2022/09/22 17:25:15;;;;;;;;;;;;;;;18.21;45.36426;102050.7;;;;-75
2022/09/22 17:30:16;;;;;;;;;;;;;;;17.98;45.5;102048.1;;;;-75
2022/09/22 17:35:18;;;;;;;;;;;;;;;17.76;45.71582;102049.5;;;;-74
2022/09/22 17:40:16;;;;;;;;;;;;;;;17.56;45.96777;102048.1;;;;-74
2022/09/22 17:44:07;;;;;;;4.1;2.1;;;;;;;;;;;;;-74
2022/09/22 17:45:16;;;;;;;;;;;;;;;17.39;46.0293;102043.3;;;;-75
2022/09/22 17:55:19;;;;;;;;;;;;;;;16.97;45.91797;102046.9;;;;-75
2022/09/22 18:00:18;;;;;;;;;;;;;;;16.79;46.1377;102049.3;;;;-75
2022/09/22 18:05:18;;;;;;;;;;;;;;;16.61;46.1416;102048.2;;;;-76
2022/09/22 18:10:20;;;;;;;;;;;;;;;16.46;46.88379;102051.1;;;;-75
2022/09/22 18:14:09;;;;;;;4.7;2.1;;;;;;;;;;;;;-77
2022/09/22 18:15:16;;;;;;;;;;;;;;;16.35;46.87305;102051.1;;;;-78
2022/09/22 18:20:16;;;;;;;;;;;;;;;16.18;46.70801;102044.6;;;;-75
2022/09/22 18:25:17;;;;;;;;;;;;;;;16.04;46.91895;102049;;;;-77
2022/09/22 18:30:16;;;;;;;;;;;;;;;15.89;47.57129;102045.4;;;;-75
2022/09/22 18:35:15;;;;;;;;;;;;;;;15.75;47.44238;102048.1;;;;-77
2022/09/22 18:40:16;;;;;;;;;;;;;;;15.62;47.5752;102047.7;;;;-78
2022/09/22 18:44:12;;;;;;;5.2;2.5;;;;;;;;;;;;;-79
2022/09/22 18:45:15;;;;;;;;;;;;;;;15.47;47.62598;102044.1;;;;-77
2022/09/22 18:50:15;;;;;;;;;;;;;;;15.36;47.96582;102046.3;;;;-77
2022/09/22 18:55:17;;;;;;;;;;;;;;;15.19;48.25195;102049.5;;;;-78
2022/09/22 19:00:19;;;;;;;;;;;;;;;15.05;48.52832;102042.5;;;;-80
2022/09/22 19:05:16;;;;;;;;;;;;;;;14.95;48.63086;102046.9;;;;-78
2022/09/22 19:10:19;;;;;;;;;;;;;;;14.89;48.88477;102046.1;;;;-77
2022/09/22 19:14:11;;;;;;;4.7;3;;;;;;;;;;;;;-78
2022/09/22 19:15:19;;;;;;;;;;;;;;;14.77;49.01758;102045.1;;;;-78
2022/09/22 19:20:18;;;;;;;;;;;;;;;14.67;49.33301;102044.9;;;;-78
2022/09/22 19:25:18;;;;;;;;;;;;;;;14.58;49.45801;102050.1;;;;-77
2022/09/22 19:30:16;;;;;;;;;;;;;;;14.46;49.56934;102053.4;;;;-79
2022/09/22 19:35:15;;;;;;;;;;;;;;;14.35;49.82617;102052.3;;;;-76
2022/09/22 19:40:23;;;;;;;;;;;;;;;14.27;49.88477;102048;;;;-78
2022/09/22 19:44:12;;;;;;;7.6;3.3;;;;;;;;;;;;;-77
2022/09/22 19:45:15;;;;;;;;;;;;;;;14.17;49.97461;102049.7;;;;-80
2022/09/22 19:50:16;;;;;;;;;;;;;;;14.08;50.11035;102046.4;;;;-77
2022/09/22 19:55:15;;;;;;;;;;;;;;;13.99;50.23633;102044.8;;;;-78
2022/09/22 20:00:24;;;;;;;;;;;;;;;13.9;50.26953;102035.7;;;;-78
2022/09/22 20:05:20;;;;;;;;;;;;;;;13.8;50.24805;102032.7;;;;-77
2022/09/22 20:10:16;;;;;;;;;;;;;;;13.77;50.12012;102024.5;;;;-75
2022/09/22 20:14:26;;;;;;;5.6;3;;;;;;;;;;;;;-74
2022/09/22 20:15:16;;;;;;;;;;;;;;;13.67;50.50293;102019;;;;-76
2022/09/22 20:20:15;;;;;;;;;;;;;;;13.58;50.3916;102016;;;;-77
2022/09/22 20:25:21;;;;;;;;;;;;;;;13.56;50.5459;102012.9;;;;-76
2022/09/22 20:30:16;;;;;;;;;;;;;;;13.48;50.46875;102008;;;;-74
2022/09/22 20:35:20;;;;;;;;;;;;;;;13.43;50.93555;101999.7;;;;-74
2022/09/22 20:40:18;;;;;;;;;;;;;;;13.37;50.76074;101998.8;;;;-75
2022/09/22 20:44:16;;;;;;;5;2.6;;;;;;;;;;;;;-74
2022/09/22 20:45:17;;;;;;;;;;;;;;;13.29;50.76367;101998.5;;;;-74
2022/09/22 20:50:16;;;;;;;;;;;;;;;13.25;50.75781;101997;;;;-74
2022/09/22 20:55:18;;;;;;;;;;;;;;;13.17;51.18652;101988.6;;;;-74
2022/09/22 21:00:17;;;;;;;;;;;;;;;13.13;51.2041;101985.5;;;;-75
2022/09/22 21:05:15;;;;;;;;;;;;;;;13.08;51.24316;101982.7;;;;-75
2022/09/22 21:14:21;;;;;;;4.5;2.9;;;;;;;;;;;;;-75
2022/09/22 21:15:18;;;;;;;;;;;;;;;12.98;51.66797;101973.7;;;;-75
2022/09/22 21:20:15;;;;;;;;;;;;;;;12.93;52.85254;101969.2;;;;-74
2022/09/22 21:25:16;;;;;;;;;;;;;;;12.9;52.26563;101966;;;;-75
2022/09/22 21:30:16;;;;;;;;;;;;;;;12.88;52.15137;101965.9;;;;-75
2022/09/22 21:35:16;;;;;;;;;;;;;;;12.83;52.50488;101965;;;;-74
2022/09/22 21:40:16;;;;;;;;;;;;;;;12.79;52.55566;101958.1;;;;-74
2022/09/22 21:44:18;;;;;;;6.1;3.3;;;;;;;;;;;;;-75
2022/09/22 21:45:17;;;;;;;;;;;;;;;12.75;54.25391;101958.5;;;;-74
2022/09/22 21:50:15;;;;;;;;;;;;;;;12.73;52.81641;101947.8;;;;-74
2022/09/22 21:55:15;;;;;;;;;;;;;;;12.7;54.125;101945.1;;;;-74
2022/09/22 22:00:15;;;;;;;;;;;;;;;12.67;53.9873;101937.9;;;;-75
2022/09/22 22:05:15;;;;;;;;;;;;;;;12.63;53.75781;101933.8;;;;-75
2022/09/22 22:10:15;;;;;;;;;;;;;;;12.6;54.03418;101932.9;;;;-74
2022/09/22 22:14:21;;;;;;;6.6;3.4;;;;;;;;;;;;;-75
2022/09/22 22:15:27;;;;;;;;;;;;;;;12.55;53.76953;101934.6;;;;-75
2022/09/22 22:20:15;;;;;;;;;;;;;;;12.58;53.97461;101926.6;;;;-74
2022/09/22 22:25:16;;;;;;;;;;;;;;;12.5;55.07422;101920;;;;-74
2022/09/22 22:30:16;;;;;;;;;;;;;;;12.5;54.70508;101918.1;;;;-73
2022/09/22 22:35:18;;;;;;;;;;;;;;;12.45;55.20215;101913.1;;;;-74
2022/09/22 22:40:16;;;;;;;;;;;;;;;12.44;55.3584;101909;;;;-75
2022/09/22 22:44:21;;;;;;;5.8;3.4;;;;;;;;;;;;;-74
2022/09/22 22:45:15;;;;;;;;;;;;;;;12.42;55.14258;101911.6;;;;-75
2022/09/22 22:50:15;;;;;;;;;;;;;;;12.39;55.19531;101902;;;;-76
2022/09/22 22:55:18;;;;;;;;;;;;;;;12.37;55.24902;101905;;;;-74
2022/09/22 23:00:15;;;;;;;;;;;;;;;12.35;55.46875;101895.9;;;;-75
2022/09/22 23:10:16;;;;;;;;;;;;;;;12.31;55.07324;101888.3;;;;-75
2022/09/22 23:14:22;;;;;;;6.8;3.5;;;;;;;;;;;;;-80
2022/09/22 23:15:15;;;;;;;;;;;;;;;12.28;55.16992;101890.3;;;;-77
2022/09/22 23:20:16;;;;;;;;;;;;;;;12.27;55.61621;101887.1;;;;-75
2022/09/22 23:25:19;;;;;;;;;;;;;;;12.28;55.09082;101887.7;;;;-78
2022/09/22 23:30:16;;;;;;;;;;;;;;;12.22;55.35254;101881.7;;;;-80
2022/09/22 23:35:20;;;;;;;;;;;;;;;12.23;55.50977;101883.4;;;;-77
2022/09/22 23:40:15;;;;;;;;;;;;;;;12.19;55.41602;101882.6;;;;-79
2022/09/22 23:44:23;;;;;;;5.8;3.7;;;;;;;;;;;;;-78
2022/09/22 23:45:15;;;;;;;;;;;;;;;12.16;55.21094;101879.8;;;;-78
2022/09/22 23:50:15;;;;;;;;;;;;;;;12.14;55.44238;101871.6;;;;-78
